Brilliant Moira — V7CX7 — position and weather

sailwx.info

Track history (hours):
 
Tides and Currents Weather Stations Pressure Air Temp Water Temp Dewpoint Dewpoint Depression Visibility Wind Speed Wind Dir Waves Ship Positions

Brilliant Moira

Last reported at 2017-Nov-18 20:21 UTC. Time now 2017-Nov-24 15:16 UTC.
Position N 37°04' W 012°18'.

Length 169 m; draft 5.4 m.

Type: Cargo ship. MMSI: 538005346.

Date/timePositionNaut miles runAvg speedWind from/ knotsBaromVisibWave heightAir tempDewpointWater temp
2017-Nov-18 20:21N 37°04' W 012°18'1911.6
2017-Nov-18 18:45N 36°59' W 011°56'311.7
2017-Nov-18 18:29N 36°58' W 011°52'611.7
2017-Nov-18 18:01N 36°56' W 011°45'612.0
2017-Nov-18 17:30N 36°55' W 011°38'712.0
2017-Nov-18 16:56N 36°53' W 011°30'512.0
2017-Nov-18 16:29N 36°51' W 011°23'611.9
2017-Nov-18 15:58N 36°50' W 011°16'611.7
2017-Nov-18 15:29N 36°48' W 011°09'2711.7
2017-Nov-18 13:12N 36°40' W 010°37'311.7
2017-Nov-18 12:56N 36°39' W 010°33'511.7
2017-Nov-18 12:31N 36°38' W 010°27'611.5
2017-Nov-18 12:01N 36°36' W 010°21'711.5
2017-Nov-18 11:26N 36°34' W 010°13'511.6
2017-Nov-18 11:01N 36°32' W 010°07'611.7
2017-Nov-18 10:31N 36°31' W 009°60'611.8
2017-Nov-18 10:01N 36°29' W 009°53'611.8
2017-Nov-18 09:30N 36°27' W 009°46'612.0
2017-Nov-18 09:00N 36°25' W 009°39'611.9
2017-Nov-18 08:30N 36°23' W 009°32'811.8
2017-Nov-18 07:50N 36°21' W 009°22'612.1
2017-Nov-18 07:22N 36°20' W 009°15'411.9
2017-Nov-18 07:00N 36°19' W 009°10'17511.7
2017-Nov-17 16:06N 35°58' W 005°36'1 9.8
2017-Nov-17 16:00N 35°58' W 005°34'510.6
2017-Nov-17 15:31N 35°60' W 005°28'510.6
2017-Nov-17 15:00N 36°03' W 005°23'5 0.8
2017-Nov-17 08:50N 36°08' W 005°22'0 0.8
2017-Nov-17 08:20N 36°08' W 005°22'2 5.0
2017-Nov-17 08:01N 36°06' W 005°22'5 9.6
2017-Nov-17 07:30N 36°05' W 005°16'  
2017-Nov-11 16:14N 37°17' E 023°39'311.4
2017-Nov-11 16:01N 37°20' E 023°39'611.5
2017-Nov-11 15:30N 37°25' E 023°41'611.5
2017-Nov-11 15:01N 37°31' E 023°42'510.3
2017-Nov-11 14:30N 37°36' E 023°43'2 3.1
2017-Nov-11 14:00N 37°37' E 023°43'4 7.8
2017-Nov-11 13:30N 37°41' E 023°42'5 9.7
2017-Nov-11 13:00N 37°46' E 023°39'5 9.8
2017-Nov-11 12:31N 37°50' E 023°37'5 9.8
2017-Nov-11 12:00N 37°55' E 023°37'4 7.5
2017-Nov-11 11:30N 37°57' E 023°34'3 6.0
2017-Nov-11 11:00N 38°00' E 023°33'2 4.5
2017-Nov-11 10:29N 38°02' E 023°32'0 0.0
2017-Nov-11 09:59N 38°02' E 023°32'0 0.0
2017-Nov-11 09:29N 38°02' E 023°32'0 0.0
2017-Nov-11 08:59N 38°02' E 023°32'0 0.0
2017-Nov-11 08:29N 38°02' E 023°32'0 0.0
2017-Nov-11 07:59N 38°02' E 023°32'0 0.0
2017-Nov-11 07:29N 38°02' E 023°32'0 0.0
2017-Nov-11 06:59N 38°02' E 023°32'0 0.0
2017-Nov-11 06:29N 38°02' E 023°32'0 0.0
2017-Nov-11 05:59N 38°02' E 023°32'0 0.0
2017-Nov-11 05:29N 38°02' E 023°32'0 0.0
2017-Nov-11 04:59N 38°02' E 023°32'0 0.0
2017-Nov-11 04:29N 38°02' E 023°32'0 0.0
2017-Nov-11 03:59N 38°02' E 023°32'0 0.0
2017-Nov-11 03:29N 38°02' E 023°32'0 0.0
2017-Nov-11 02:59N 38°02' E 023°32'0 0.0
2017-Nov-11 02:29N 38°02' E 023°32'0 0.0
2017-Nov-11 01:59N 38°02' E 023°32'0 0.0
2017-Nov-11 01:29N 38°02' E 023°32'0 0.0
2017-Nov-11 00:59N 38°02' E 023°32'0 0.0
2017-Nov-11 00:29N 38°02' E 023°32'0 0.0
2017-Nov-10 23:59N 38°02' E 023°32'0 0.0
2017-Nov-10 23:29N 38°02' E 023°32'0 0.0
2017-Nov-10 22:59N 38°02' E 023°32'0 0.0
2017-Nov-10 22:29N 38°02' E 023°32'0 0.0
2017-Nov-10 21:59N 38°02' E 023°32'0 0.0
2017-Nov-10 21:29N 38°02' E 023°32'0 0.0
2017-Nov-10 20:59N 38°02' E 023°32'0 0.0
2017-Nov-10 20:29N 38°02' E 023°32'0 0.0
2017-Nov-10 19:59N 38°02' E 023°32'0 0.0
2017-Nov-10 19:29N 38°02' E 023°32'0 0.0
2017-Nov-10 18:59N 38°02' E 023°32'0 0.0
2017-Nov-10 18:29N 38°02' E 023°32'0 0.0
2017-Nov-10 17:59N 38°02' E 023°32'0 0.0
2017-Nov-10 17:29N 38°02' E 023°32'0 0.0
2017-Nov-10 16:59N 38°02' E 023°32'0 0.0
2017-Nov-10 16:29N 38°02' E 023°32'0 0.0
2017-Nov-10 15:59N 38°02' E 023°32'0 0.0
2017-Nov-10 15:29N 38°02' E 023°32'0 0.0
2017-Nov-10 14:59N 38°02' E 023°32'0 0.0
2017-Nov-10 14:29N 38°02' E 023°32'0 0.0
2017-Nov-10 13:59N 38°02' E 023°32'0 0.0
2017-Nov-10 13:29N 38°02' E 023°32'0 0.0
2017-Nov-10 12:59N 38°02' E 023°32'0 0.0
2017-Nov-10 12:29N 38°02' E 023°32'0 0.0
2017-Nov-10 11:59N 38°02' E 023°32'0 0.0
2017-Nov-10 11:23N 38°02' E 023°32'0 0.0
2017-Nov-10 10:59N 38°02' E 023°32'0 0.0
2017-Nov-10 10:29N 38°02' E 023°32'0 0.0
2017-Nov-10 09:59N 38°02' E 023°32'0 0.0
2017-Nov-10 09:29N 38°02' E 023°32'0 0.0
2017-Nov-10 08:59N 38°02' E 023°32'0 0.0
2017-Nov-10 08:26N 38°02' E 023°32'0 0.0
2017-Nov-10 07:59N 38°02' E 023°32'0 0.0
2017-Nov-10 07:29N 38°02' E 023°32'0 0.0
2017-Nov-10 06:59N 38°02' E 023°32'0 0.0
2017-Nov-10 06:29N 38°02' E 023°32'0 0.0
2017-Nov-10 05:59N 38°02' E 023°32'0 0.0
2017-Nov-10 05:29N 38°02' E 023°32'0 0.0
2017-Nov-10 04:59N 38°02' E 023°32'0 0.0
2017-Nov-10 04:29N 38°02' E 023°32'0 0.0
2017-Nov-10 03:59N 38°02' E 023°32'0 0.0
2017-Nov-10 03:29N 38°02' E 023°32'0 0.0
2017-Nov-10 02:59N 38°02' E 023°32'0 0.0
2017-Nov-10 02:29N 38°02' E 023°32'0 0.0
2017-Nov-10 01:59N 38°02' E 023°32'0 0.0
2017-Nov-10 01:29N 38°02' E 023°32'0 0.0
2017-Nov-10 00:59N 38°02' E 023°32'0 0.0
2017-Nov-10 00:29N 38°02' E 023°32'0 0.0
2017-Nov-09 23:59N 38°02' E 023°32'0 0.0
2017-Nov-09 23:29N 38°02' E 023°32'0 0.0
2017-Nov-09 22:59N 38°02' E 023°32'0 0.0
2017-Nov-09 22:29N 38°02' E 023°32'0 0.0
2017-Nov-09 21:59N 38°02' E 023°32'0 0.0
2017-Nov-09 21:29N 38°02' E 023°32'0 0.0
2017-Nov-09 20:59N 38°02' E 023°32'0 0.0
2017-Nov-09 20:29N 38°02' E 023°32'0 0.0
2017-Nov-09 19:59N 38°02' E 023°32'0 0.0
2017-Nov-09 19:29N 38°02' E 023°32'0 0.0
2017-Nov-09 18:59N 38°02' E 023°32'0 0.0
2017-Nov-09 18:29N 38°02' E 023°32'0 0.0
2017-Nov-09 17:59N 38°02' E 023°32'0 0.0
2017-Nov-09 17:29N 38°02' E 023°32'0 0.0
2017-Nov-09 16:59N 38°02' E 023°32'0 0.0
2017-Nov-09 16:29N 38°02' E 023°32'0 0.0
2017-Nov-09 15:59N 38°02' E 023°32'0 0.0
2017-Nov-09 15:29N 38°02' E 023°32'0 0.0
2017-Nov-09 14:59N 38°02' E 023°32'0 0.0
2017-Nov-09 14:29N 38°02' E 023°32'0 0.0
2017-Nov-09 13:59N 38°02' E 023°32'0 0.0
2017-Nov-09 13:29N 38°02' E 023°32'0 0.0
2017-Nov-09 12:59N 38°02' E 023°32'0 0.0
2017-Nov-09 12:29N 38°02' E 023°32'0 0.0
2017-Nov-09 11:59N 38°02' E 023°32'0 0.0
2017-Nov-09 11:29N 38°02' E 023°32'0 0.0
2017-Nov-09 10:59N 38°02' E 023°32'0 0.0
2017-Nov-09 10:29N 38°02' E 023°32'0 0.0
2017-Nov-09 09:59N 38°02' E 023°32'0 0.0
2017-Nov-09 09:29N 38°02' E 023°32'0 0.0
2017-Nov-09 08:59N 38°02' E 023°32'0 0.0
2017-Nov-09 08:29N 38°02' E 023°32'0 0.0
2017-Nov-09 07:59N 38°02' E 023°32'0 0.0
2017-Nov-09 07:29N 38°02' E 023°32'0 0.0
2017-Nov-09 06:59N 38°02' E 023°32'0 0.0
2017-Nov-09 06:29N 38°02' E 023°32'0 0.0
2017-Nov-09 05:59N 38°02' E 023°32'0 0.0
2017-Nov-09 05:29N 38°02' E 023°32'0 0.0
2017-Nov-09 04:59N 38°02' E 023°32'0 0.0
2017-Nov-09 04:29N 38°02' E 023°32'0 0.0
2017-Nov-09 03:59N 38°02' E 023°32'0 0.0
2017-Nov-09 03:29N 38°02' E 023°32'0 0.0
2017-Nov-09 02:59N 38°02' E 023°32'0 0.0
2017-Nov-09 02:29N 38°02' E 023°32'0 0.0
2017-Nov-09 01:59N 38°02' E 023°32'0 0.0
2017-Nov-09 01:29N 38°02' E 023°32'0 0.0
2017-Nov-09 00:59N 38°02' E 023°32'0 0.0
2017-Nov-09 00:29N 38°02' E 023°32'0 0.0
2017-Nov-08 23:59N 38°02' E 023°32'0 0.0
2017-Nov-08 23:29N 38°02' E 023°32'0 0.0
2017-Nov-08 22:59N 38°02' E 023°32'0 0.0
2017-Nov-08 22:29N 38°02' E 023°32'0 0.0
2017-Nov-08 21:59N 38°02' E 023°32'0 0.0
2017-Nov-08 21:29N 38°02' E 023°32'0 0.0
2017-Nov-08 20:59N 38°02' E 023°32'0 0.0
2017-Nov-08 20:29N 38°02' E 023°32'  
Track history (hours):
 
Tides and Currents Weather Stations Pressure Air Temp Water Temp Dewpoint Dewpoint Depression Visibility Wind Speed Wind Dir Waves Ship Positions

Brilliant Moira

Last reported at 2017-Nov-18 20:21 UTC. Time now 2017-Nov-24 15:16 UTC.
Position N 37°04' W 012°18'.

Length 169 m; draft 5.4 m.

Type: Cargo ship. MMSI: 538005346.

Date/timePositionNaut miles runAvg speedWind from/ knotsBaromVisibWave heightAir tempDewpointWater temp
2017-Nov-18 20:21N 37°04' W 012°18'1911.6
2017-Nov-18 18:45N 36°59' W 011°56'311.7
2017-Nov-18 18:29N 36°58' W 011°52'611.7
2017-Nov-18 18:01N 36°56' W 011°45'612.0
2017-Nov-18 17:30N 36°55' W 011°38'712.0
2017-Nov-18 16:56N 36°53' W 011°30'512.0
2017-Nov-18 16:29N 36°51' W 011°23'611.9
2017-Nov-18 15:58N 36°50' W 011°16'611.7
2017-Nov-18 15:29N 36°48' W 011°09'2711.7
2017-Nov-18 13:12N 36°40' W 010°37'311.7
2017-Nov-18 12:56N 36°39' W 010°33'511.7
2017-Nov-18 12:31N 36°38' W 010°27'611.5
2017-Nov-18 12:01N 36°36' W 010°21'711.5
2017-Nov-18 11:26N 36°34' W 010°13'511.6
2017-Nov-18 11:01N 36°32' W 010°07'611.7
2017-Nov-18 10:31N 36°31' W 009°60'611.8
2017-Nov-18 10:01N 36°29' W 009°53'611.8
2017-Nov-18 09:30N 36°27' W 009°46'612.0
2017-Nov-18 09:00N 36°25' W 009°39'611.9
2017-Nov-18 08:30N 36°23' W 009°32'811.8
2017-Nov-18 07:50N 36°21' W 009°22'612.1
2017-Nov-18 07:22N 36°20' W 009°15'411.9
2017-Nov-18 07:00N 36°19' W 009°10'17511.7
2017-Nov-17 16:06N 35°58' W 005°36'1 9.8
2017-Nov-17 16:00N 35°58' W 005°34'510.6
2017-Nov-17 15:31N 35°60' W 005°28'510.6
2017-Nov-17 15:00N 36°03' W 005°23'5 0.8
2017-Nov-17 08:50N 36°08' W 005°22'0 0.8
2017-Nov-17 08:20N 36°08' W 005°22'2 5.0
2017-Nov-17 08:01N 36°06' W 005°22'5 9.6
2017-Nov-17 07:30N 36°05' W 005°16'  
2017-Nov-11 16:14N 37°17' E 023°39'311.4
2017-Nov-11 16:01N 37°20' E 023°39'611.5
2017-Nov-11 15:30N 37°25' E 023°41'611.5
2017-Nov-11 15:01N 37°31' E 023°42'510.3
2017-Nov-11 14:30N 37°36' E 023°43'2 3.1
2017-Nov-11 14:00N 37°37' E 023°43'4 7.8
2017-Nov-11 13:30N 37°41' E 023°42'5 9.7
2017-Nov-11 13:00N 37°46' E 023°39'5 9.8
2017-Nov-11 12:31N 37°50' E 023°37'5 9.8
2017-Nov-11 12:00N 37°55' E 023°37'4 7.5
2017-Nov-11 11:30N 37°57' E 023°34'3 6.0
2017-Nov-11 11:00N 38°00' E 023°33'2 4.5
2017-Nov-11 10:29N 38°02' E 023°32'0 0.0
2017-Nov-11 09:59N 38°02' E 023°32'0 0.0
2017-Nov-11 09:29N 38°02' E 023°32'0 0.0
2017-Nov-11 08:59N 38°02' E 023°32'0 0.0
2017-Nov-11 08:29N 38°02' E 023°32'0 0.0
2017-Nov-11 07:59N 38°02' E 023°32'0 0.0
2017-Nov-11 07:29N 38°02' E 023°32'0 0.0
2017-Nov-11 06:59N 38°02' E 023°32'0 0.0
2017-Nov-11 06:29N 38°02' E 023°32'0 0.0
2017-Nov-11 05:59N 38°02' E 023°32'0 0.0
2017-Nov-11 05:29N 38°02' E 023°32'0 0.0
2017-Nov-11 04:59N 38°02' E 023°32'0 0.0
2017-Nov-11 04:29N 38°02' E 023°32'0 0.0
2017-Nov-11 03:59N 38°02' E 023°32'0 0.0
2017-Nov-11 03:29N 38°02' E 023°32'0 0.0
2017-Nov-11 02:59N 38°02' E 023°32'0 0.0
2017-Nov-11 02:29N 38°02' E 023°32'0 0.0
2017-Nov-11 01:59N 38°02' E 023°32'0 0.0
2017-Nov-11 01:29N 38°02' E 023°32'0 0.0
2017-Nov-11 00:59N 38°02' E 023°32'0 0.0
2017-Nov-11 00:29N 38°02' E 023°32'0 0.0
2017-Nov-10 23:59N 38°02' E 023°32'0 0.0
2017-Nov-10 23:29N 38°02' E 023°32'0 0.0
2017-Nov-10 22:59N 38°02' E 023°32'0 0.0
2017-Nov-10 22:29N 38°02' E 023°32'0 0.0
2017-Nov-10 21:59N 38°02' E 023°32'0 0.0
2017-Nov-10 21:29N 38°02' E 023°32'0 0.0
2017-Nov-10 20:59N 38°02' E 023°32'0 0.0
2017-Nov-10 20:29N 38°02' E 023°32'0 0.0
2017-Nov-10 19:59N 38°02' E 023°32'0 0.0
2017-Nov-10 19:29N 38°02' E 023°32'0 0.0
2017-Nov-10 18:59N 38°02' E 023°32'0 0.0
2017-Nov-10 18:29N 38°02' E 023°32'0 0.0
2017-Nov-10 17:59N 38°02' E 023°32'0 0.0
2017-Nov-10 17:29N 38°02' E 023°32'0 0.0
2017-Nov-10 16:59N 38°02' E 023°32'0 0.0
2017-Nov-10 16:29N 38°02' E 023°32'0 0.0
2017-Nov-10 15:59N 38°02' E 023°32'0 0.0
2017-Nov-10 15:29N 38°02' E 023°32'0 0.0
2017-Nov-10 14:59N 38°02' E 023°32'0 0.0
2017-Nov-10 14:29N 38°02' E 023°32'0 0.0
2017-Nov-10 13:59N 38°02' E 023°32'0 0.0
2017-Nov-10 13:29N 38°02' E 023°32'0 0.0
2017-Nov-10 12:59N 38°02' E 023°32'0 0.0
2017-Nov-10 12:29N 38°02' E 023°32'0 0.0
2017-Nov-10 11:59N 38°02' E 023°32'0 0.0
2017-Nov-10 11:23N 38°02' E 023°32'0 0.0
2017-Nov-10 10:59N 38°02' E 023°32'0 0.0
2017-Nov-10 10:29N 38°02' E 023°32'0 0.0
2017-Nov-10 09:59N 38°02' E 023°32'0 0.0
2017-Nov-10 09:29N 38°02' E 023°32'0 0.0
2017-Nov-10 08:59N 38°02' E 023°32'0 0.0
2017-Nov-10 08:26N 38°02' E 023°32'0 0.0
2017-Nov-10 07:59N 38°02' E 023°32'0 0.0
2017-Nov-10 07:29N 38°02' E 023°32'0 0.0
2017-Nov-10 06:59N 38°02' E 023°32'0 0.0
2017-Nov-10 06:29N 38°02' E 023°32'0 0.0
2017-Nov-10 05:59N 38°02' E 023°32'0 0.0
2017-Nov-10 05:29N 38°02' E 023°32'0 0.0
2017-Nov-10 04:59N 38°02' E 023°32'0 0.0
2017-Nov-10 04:29N 38°02' E 023°32'0 0.0
2017-Nov-10 03:59N 38°02' E 023°32'0 0.0
2017-Nov-10 03:29N 38°02' E 023°32'0 0.0
2017-Nov-10 02:59N 38°02' E 023°32'0 0.0
2017-Nov-10 02:29N 38°02' E 023°32'0 0.0
2017-Nov-10 01:59N 38°02' E 023°32'0 0.0
2017-Nov-10 01:29N 38°02' E 023°32'0 0.0
2017-Nov-10 00:59N 38°02' E 023°32'0 0.0
2017-Nov-10 00:29N 38°02' E 023°32'0 0.0
2017-Nov-09 23:59N 38°02' E 023°32'0 0.0
2017-Nov-09 23:29N 38°02' E 023°32'0 0.0
2017-Nov-09 22:59N 38°02' E 023°32'0 0.0
2017-Nov-09 22:29N 38°02' E 023°32'0 0.0
2017-Nov-09 21:59N 38°02' E 023°32'0 0.0
2017-Nov-09 21:29N 38°02' E 023°32'0 0.0
2017-Nov-09 20:59N 38°02' E 023°32'0 0.0
2017-Nov-09 20:29N 38°02' E 023°32'0 0.0
2017-Nov-09 19:59N 38°02' E 023°32'0 0.0
2017-Nov-09 19:29N 38°02' E 023°32'0 0.0
2017-Nov-09 18:59N 38°02' E 023°32'0 0.0
2017-Nov-09 18:29N 38°02' E 023°32'0 0.0
2017-Nov-09 17:59N 38°02' E 023°32'0 0.0
2017-Nov-09 17:29N 38°02' E 023°32'0 0.0
2017-Nov-09 16:59N 38°02' E 023°32'0 0.0
2017-Nov-09 16:29N 38°02' E 023°32'0 0.0
2017-Nov-09 15:59N 38°02' E 023°32'0 0.0
2017-Nov-09 15:29N 38°02' E 023°32'0 0.0
2017-Nov-09 14:59N 38°02' E 023°32'0 0.0
2017-Nov-09 14:29N 38°02' E 023°32'0 0.0
2017-Nov-09 13:59N 38°02' E 023°32'0 0.0
2017-Nov-09 13:29N 38°02' E 023°32'0 0.0
2017-Nov-09 12:59N 38°02' E 023°32'0 0.0
2017-Nov-09 12:29N 38°02' E 023°32'0 0.0
2017-Nov-09 11:59N 38°02' E 023°32'0 0.0
2017-Nov-09 11:29N 38°02' E 023°32'0 0.0
2017-Nov-09 10:59N 38°02' E 023°32'0 0.0
2017-Nov-09 10:29N 38°02' E 023°32'0 0.0
2017-Nov-09 09:59N 38°02' E 023°32'0 0.0
2017-Nov-09 09:29N 38°02' E 023°32'0 0.0
2017-Nov-09 08:59N 38°02' E 023°32'0 0.0
2017-Nov-09 08:29N 38°02' E 023°32'0 0.0
2017-Nov-09 07:59N 38°02' E 023°32'0 0.0
2017-Nov-09 07:29N 38°02' E 023°32'0 0.0
2017-Nov-09 06:59N 38°02' E 023°32'0 0.0
2017-Nov-09 06:29N 38°02' E 023°32'0 0.0
2017-Nov-09 05:59N 38°02' E 023°32'0 0.0
2017-Nov-09 05:29N 38°02' E 023°32'0 0.0
2017-Nov-09 04:59N 38°02' E 023°32'0 0.0
2017-Nov-09 04:29N 38°02' E 023°32'0 0.0
2017-Nov-09 03:59N 38°02' E 023°32'0 0.0
2017-Nov-09 03:29N 38°02' E 023°32'0 0.0
2017-Nov-09 02:59N 38°02' E 023°32'0 0.0
2017-Nov-09 02:29N 38°02' E 023°32'0 0.0
2017-Nov-09 01:59N 38°02' E 023°32'0 0.0
2017-Nov-09 01:29N 38°02' E 023°32'0 0.0
2017-Nov-09 00:59N 38°02' E 023°32'0 0.0
2017-Nov-09 00:29N 38°02' E 023°32'0 0.0
2017-Nov-08 23:59N 38°02' E 023°32'0 0.0
2017-Nov-08 23:29N 38°02' E 023°32'0 0.0
2017-Nov-08 22:59N 38°02' E 023°32'0 0.0
2017-Nov-08 22:29N 38°02' E 023°32'0 0.0
2017-Nov-08 21:59N 38°02' E 023°32'0 0.0
2017-Nov-08 21:29N 38°02' E 023°32'0 0.0
2017-Nov-08 20:59N 38°02' E 023°32'0 0.0
2017-Nov-08 20:29N 38°02' E 023°32'  

Dump ship's entire track history